sensor_id;sensor_type;location;lat;lon;timestamp;pressure;altitude;pressure_sealevel;temperature;humidity
59419;BME280;45224;50.904;6.038;2023-04-06T00:01:22;100007.72;;;5.88;51.01
59419;BME280;45224;50.904;6.038;2023-04-06T00:02:53;100006.75;;;5.83;51.12
59419;BME280;45224;50.904;6.038;2023-04-06T00:04:23;100010.13;;;5.82;50.81
59419;BME280;45224;50.904;6.038;2023-04-06T00:05:54;100003.19;;;5.78;51.02
59419;BME280;45224;50.904;6.038;2023-04-06T00:07:24;99998.78;;;5.72;51.16
59419;BME280;45224;50.904;6.038;2023-04-06T00:08:55;99998.69;;;5.67;50.80
59419;BME280;45224;50.904;6.038;2023-04-06T00:10:26;100003.81;;;5.67;51.13
59419;BME280;45224;50.904;6.038;2023-04-06T00:11:56;99999.50;;;5.66;50.98
59419;BME280;45224;50.904;6.038;2023-04-06T00:13:28;100001.19;;;5.64;50.90
59419;BME280;45224;50.904;6.038;2023-04-06T00:14:58;100002.78;;;5.59;51.71
59419;BME280;45224;50.904;6.038;2023-04-06T00:16:29;99994.88;;;5.52;51.45
59419;BME280;45224;50.904;6.038;2023-04-06T00:18:00;99996.59;;;5.51;50.98
59419;BME280;45224;50.904;6.038;2023-04-06T00:19:30;99987.13;;;5.48;51.23
59419;BME280;45224;50.904;6.038;2023-04-06T00:21:01;99997.34;;;5.47;50.94
59419;BME280;45224;50.904;6.038;2023-04-06T00:22:31;100002.41;;;5.44;51.09
59419;BME280;45224;50.904;6.038;2023-04-06T00:24:01;99989.53;;;5.42;50.86
59419;BME280;45224;50.904;6.038;2023-04-06T00:25:34;99990.34;;;5.40;51.18
59419;BME280;45224;50.904;6.038;2023-04-06T00:27:04;99992.91;;;5.40;51.51
59419;BME280;45224;50.904;6.038;2023-04-06T00:28:35;99986.03;;;5.39;51.29
59419;BME280;45224;50.904;6.038;2023-04-06T00:30:06;99984.31;;;5.39;51.07
59419;BME280;45224;50.904;6.038;2023-04-06T00:31:37;99983.53;;;5.42;51.29
59419;BME280;45224;50.904;6.038;2023-04-06T00:33:07;99987.78;;;5.40;51.22
59419;BME280;45224;50.904;6.038;2023-04-06T00:34:38;99988.59;;;5.39;51.78
59419;BME280;45224;50.904;6.038;2023-04-06T00:36:09;99980.75;;;5.33;51.92
59419;BME280;45224;50.904;6.038;2023-04-06T00:37:39;99977.41;;;5.35;51.68
59419;BME280;45224;50.904;6.038;2023-04-06T00:39:10;99973.06;;;5.33;51.72
59419;BME280;45224;50.904;6.038;2023-04-06T00:40:41;99969.69;;;5.34;52.03
59419;BME280;45224;50.904;6.038;2023-04-06T00:42:12;99971.34;;;5.32;52.43
59419;BME280;45224;50.904;6.038;2023-04-06T00:43:43;99972.16;;;5.30;52.30
59419;BME280;45224;50.904;6.038;2023-04-06T00:45:14;99972.94;;;5.26;52.75
59419;BME280;45224;50.904;6.038;2023-04-06T00:46:45;99967.72;;;5.23;52.73
59419;BME280;45224;50.904;6.038;2023-04-06T00:48:16;99972.78;;;5.20;53.17
59419;BME280;45224;50.904;6.038;2023-04-06T00:49:48;99962.44;;;5.17;52.26
59419;BME280;45224;50.904;6.038;2023-04-06T00:51:18;99971.03;;;5.19;52.82
59419;BME280;45224;50.904;6.038;2023-04-06T00:52:49;99964.09;;;5.15;52.37
59419;BME280;45224;50.904;6.038;2023-04-06T00:54:22;99965.84;;;5.16;52.77
59419;BME280;45224;50.904;6.038;2023-04-06T00:55:52;99962.44;;;5.17;52.94
59419;BME280;45224;50.904;6.038;2023-04-06T00:57:24;99961.53;;;5.14;52.60
59419;BME280;45224;50.904;6.038;2023-04-06T00:59:00;99963.16;;;5.11;52.87
59419;BME280;45224;50.904;6.038;2023-04-06T01:00:31;99955.44;;;5.10;52.69
59419;BME280;45224;50.904;6.038;2023-04-06T01:02:04;99960.56;;;5.10;52.16
59419;BME280;45224;50.904;6.038;2023-04-06T01:03:41;99957.13;;;5.09;52.64
59419;BME280;45224;50.904;6.038;2023-04-06T01:05:13;99949.38;;;5.06;52.45
59419;BME280;45224;50.904;6.038;2023-04-06T01:06:52;99948.50;;;5.06;52.79
59419;BME280;45224;50.904;6.038;2023-04-06T01:08:25;99949.28;;;5.03;53.34
59419;BME280;45224;50.904;6.038;2023-04-06T01:10:01;99945.00;;;5.04;53.02
59419;BME280;45224;50.904;6.038;2023-04-06T01:11:35;99942.41;;;5.01;52.74
59419;BME280;45224;50.904;6.038;2023-04-06T01:13:09;99945.81;;;5.01;53.25
59419;BME280;45224;50.904;6.038;2023-04-06T01:14:56;99937.25;;;4.99;52.90
59419;BME280;45224;50.904;6.038;2023-04-06T01:16:28;99935.53;;;5.00;52.95
59419;BME280;45224;50.904;6.038;2023-04-06T01:18:11;99938.06;;;4.98;53.61
59419;BME280;45224;50.904;6.038;2023-04-06T01:19:45;99943.91;;;4.94;53.68
59419;BME280;45224;50.904;6.038;2023-04-06T01:21:24;99936.06;;;4.86;53.46
59419;BME280;45224;50.904;6.038;2023-04-06T01:23:12;99940.19;;;4.81;54.03
59419;BME280;45224;50.904;6.038;2023-04-06T01:24:49;99937.56;;;4.78;53.82
59419;BME280;45224;50.904;6.038;2023-04-06T01:26:35;99932.28;;;4.72;54.03
59419;BME280;45224;50.904;6.038;2023-04-06T01:28:10;99939.03;;;4.70;53.98
59419;BME280;45224;50.904;6.038;2023-04-06T01:30:09;99932.03;;;4.63;53.92
59419;BME280;45224;50.904;6.038;2023-04-06T01:31:46;99930.38;;;4.65;53.83
59419;BME280;45224;50.904;6.038;2023-04-06T01:33:17;99935.56;;;4.68;53.76
59419;BME280;45224;50.904;6.038;2023-04-06T01:35:02;99930.44;;;4.68;53.74
59419;BME280;45224;50.904;6.038;2023-04-06T01:36:35;99931.31;;;4.67;54.18
59419;BME280;45224;50.904;6.038;2023-04-06T01:38:20;99927.78;;;4.63;54.43
59419;BME280;45224;50.904;6.038;2023-04-06T01:39:52;99929.31;;;4.56;54.13
59419;BME280;45224;50.904;6.038;2023-04-06T01:41:31;99933.53;;;4.54;54.99
59419;BME280;45224;50.904;6.038;2023-04-06T01:43:02;99933.41;;;4.50;54.61
59419;BME280;45224;50.904;6.038;2023-04-06T01:44:39;99926.44;;;4.44;54.55
59419;BME280;45224;50.904;6.038;2023-04-06T01:46:17;99929.00;;;4.44;54.71
59419;BME280;45224;50.904;6.038;2023-04-06T01:47:49;99919.50;;;4.40;55.25
59419;BME280;45224;50.904;6.038;2023-04-06T01:49:19;99927.00;;;4.34;55.15
59419;BME280;45224;50.904;6.038;2023-04-06T01:50:55;99921.84;;;4.32;54.89
59419;BME280;45224;50.904;6.038;2023-04-06T01:52:32;99930.41;;;4.33;55.03
59419;BME280;45224;50.904;6.038;2023-04-06T01:54:04;99922.38;;;4.20;54.78
59419;BME280;45224;50.904;6.038;2023-04-06T01:55:57;99919.06;;;4.25;54.63
59419;BME280;45224;50.904;6.038;2023-04-06T01:57:31;99924.25;;;4.28;55.05
59419;BME280;45224;50.904;6.038;2023-04-06T01:59:11;99908.00;;;4.26;54.75
59419;BME280;45224;50.904;6.038;2023-04-06T02:00:45;99919.81;;;4.20;54.62
59419;BME280;45224;50.904;6.038;2023-04-06T02:02:16;99917.34;;;4.24;54.09
59419;BME280;45224;50.904;6.038;2023-04-06T02:03:56;99913.88;;;4.22;54.05
59419;BME280;45224;50.904;6.038;2023-04-06T02:05:30;99925.03;;;4.24;54.68
59419;BME280;45224;50.904;6.038;2023-04-06T02:07:01;99906.25;;;4.25;54.32
59419;BME280;45224;50.904;6.038;2023-04-06T02:08:33;99918.25;;;4.26;53.92
59419;BME280;45224;50.904;6.038;2023-04-06T02:10:04;99891.63;;;4.19;54.05
59419;BME280;45224;50.904;6.038;2023-04-06T02:11:42;99903.75;;;4.26;53.80
59419;BME280;45224;50.904;6.038;2023-04-06T02:13:12;99908.94;;;4.29;53.41
59419;BME280;45224;50.904;6.038;2023-04-06T02:14:47;99905.63;;;4.32;53.17
59419;BME280;45224;50.904;6.038;2023-04-06T02:16:18;99899.69;;;4.33;53.20
59419;BME280;45224;50.904;6.038;2023-04-06T02:17:50;99897.97;;;4.33;53.22
59419;BME280;45224;50.904;6.038;2023-04-06T02:19:21;99907.38;;;4.33;53.07
59419;BME280;45224;50.904;6.038;2023-04-06T02:20:52;99900.41;;;4.29;53.35
59419;BME280;45224;50.904;6.038;2023-04-06T02:22:23;99900.50;;;4.32;53.33
59419;BME280;45224;50.904;6.038;2023-04-06T02:23:54;99898.75;;;4.31;53.51
59419;BME280;45224;50.904;6.038;2023-04-06T02:25:25;99905.63;;;4.32;53.37
59419;BME280;45224;50.904;6.038;2023-04-06T02:26:56;99889.28;;;4.27;53.38
59419;BME280;45224;50.904;6.038;2023-04-06T02:28:27;99897.91;;;4.30;53.44
59419;BME280;45224;50.904;6.038;2023-04-06T02:29:57;99894.34;;;4.25;53.11
59419;BME280;45224;50.904;6.038;2023-04-06T02:31:28;99900.31;;;4.26;52.99
59419;BME280;45224;50.904;6.038;2023-04-06T02:33:00;99893.53;;;4.28;53.37
59419;BME280;45224;50.904;6.038;2023-04-06T02:34:31;99890.94;;;4.26;52.76
59419;BME280;45224;50.904;6.038;2023-04-06T02:36:02;99889.16;;;4.22;53.04
59419;BME280;45224;50.904;6.038;2023-04-06T02:37:33;99892.69;;;4.27;52.83
59419;BME280;45224;50.904;6.038;2023-04-06T02:39:04;99882.38;;;4.24;53.12
59419;BME280;45224;50.904;6.038;2023-04-06T02:40:35;99885.06;;;4.29;53.00
59419;BME280;45224;50.904;6.038;2023-04-06T02:42:16;99888.44;;;4.28;53.46
59419;BME280;45224;50.904;6.038;2023-04-06T02:43:48;99885.78;;;4.25;53.17
59419;BME280;45224;50.904;6.038;2023-04-06T02:45:27;99883.22;;;4.25;52.78
59419;BME280;45224;50.904;6.038;2023-04-06T02:46:59;99883.16;;;4.22;53.17
59419;BME280;45224;50.904;6.038;2023-04-06T02:48:31;99882.25;;;4.19;53.25
59419;BME280;45224;50.904;6.038;2023-04-06T02:50:02;99875.38;;;4.17;52.58
59419;BME280;45224;50.904;6.038;2023-04-06T02:51:33;99883.09;;;4.18;53.20
59419;BME280;45224;50.904;6.038;2023-04-06T02:53:17;99875.19;;;4.11;53.14
59419;BME280;45224;50.904;6.038;2023-04-06T02:54:47;99879.50;;;4.13;53.48
59419;BME280;45224;50.904;6.038;2023-04-06T02:56:24;99866.63;;;4.09;53.00
59419;BME280;45224;50.904;6.038;2023-04-06T02:57:56;99857.16;;;4.06;53.38
59419;BME280;45224;50.904;6.038;2023-04-06T02:59:31;99877.72;;;4.09;53.52
59419;BME280;45224;50.904;6.038;2023-04-06T03:01:13;99874.25;;;4.07;53.60
59419;BME280;45224;50.904;6.038;2023-04-06T03:02:45;99881.84;;;4.04;53.27
59419;BME280;45224;50.904;6.038;2023-04-06T03:04:19;99866.31;;;3.98;53.93
59419;BME280;45224;50.904;6.038;2023-04-06T03:05:50;99870.75;;;4.05;53.05
59419;BME280;45224;50.904;6.038;2023-04-06T03:07:28;99875.81;;;4.03;53.12
59419;BME280;45224;50.904;6.038;2023-04-06T03:08:59;99875.78;;;4.00;53.29
59419;BME280;45224;50.904;6.038;2023-04-06T03:10:29;99863.75;;;3.98;53.61
59419;BME280;45224;50.904;6.038;2023-04-06T03:12:00;99868.09;;;4.00;53.96
59419;BME280;45224;50.904;6.038;2023-04-06T03:13:32;99866.31;;;3.98;54.04
59419;BME280;45224;50.904;6.038;2023-04-06T03:15:03;99868.97;;;4.01;53.98
59419;BME280;45224;50.904;6.038;2023-04-06T03:16:34;99864.66;;;4.00;54.92
59419;BME280;45224;50.904;6.038;2023-04-06T03:18:06;99856.97;;;4.00;53.63
59419;BME280;45224;50.904;6.038;2023-04-06T03:19:42;99858.72;;;4.01;53.87
59419;BME280;45224;50.904;6.038;2023-04-06T03:21:14;99850.16;;;3.99;54.01
59419;BME280;45224;50.904;6.038;2023-04-06T03:22:52;99864.00;;;4.07;53.68
59419;BME280;45224;50.904;6.038;2023-04-06T03:24:27;99862.31;;;4.08;53.90
59419;BME280;45224;50.904;6.038;2023-04-06T03:25:58;99863.16;;;4.08;54.26
59419;BME280;45224;50.904;6.038;2023-04-06T03:27:29;99858.91;;;4.07;53.34
59419;BME280;45224;50.904;6.038;2023-04-06T03:29:00;99846.81;;;4.03;54.01
59419;BME280;45224;50.904;6.038;2023-04-06T03:30:35;99858.06;;;4.08;53.78
59419;BME280;45224;50.904;6.038;2023-04-06T03:32:05;99857.25;;;4.09;53.51
59419;BME280;45224;50.904;6.038;2023-04-06T03:33:45;99851.19;;;4.06;53.75
59419;BME280;45224;50.904;6.038;2023-04-06T03:35:29;99855.50;;;4.08;54.08
59419;BME280;45224;50.904;6.038;2023-04-06T03:37:01;99855.50;;;4.08;54.71
59419;BME280;45224;50.904;6.038;2023-04-06T03:38:33;99853.81;;;4.09;54.50
59419;BME280;45224;50.904;6.038;2023-04-06T03:40:06;99858.06;;;4.08;54.95
59419;BME280;45224;50.904;6.038;2023-04-06T03:41:36;99851.09;;;4.02;55.34
59419;BME280;45224;50.904;6.038;2023-04-06T03:43:14;99854.47;;;4.01;54.95
59419;BME280;45224;50.904;6.038;2023-04-06T03:44:45;99863.94;;;4.04;54.90
59419;BME280;45224;50.904;6.038;2023-04-06T03:46:16;99854.41;;;4.00;55.85
59419;BME280;45224;50.904;6.038;2023-04-06T03:47:47;99847.59;;;3.99;55.39
59419;BME280;45224;50.904;6.038;2023-04-06T03:49:18;99844.06;;;3.95;55.55
59419;BME280;45224;50.904;6.038;2023-04-06T03:50:52;99854.34;;;3.97;55.59
59419;BME280;45224;50.904;6.038;2023-04-06T03:52:22;99856.81;;;3.94;56.37
59419;BME280;45224;50.904;6.038;2023-04-06T03:53:55;99847.25;;;3.87;56.47
59419;BME280;45224;50.904;6.038;2023-04-06T03:55:25;99847.25;;;3.87;56.18
59419;BME280;45224;50.904;6.038;2023-04-06T03:56:56;99848.91;;;3.84;55.20
59419;BME280;45224;50.904;6.038;2023-04-06T03:58:30;99849.13;;;3.94;54.96
59419;BME280;45224;50.904;6.038;2023-04-06T04:00:01;99851.59;;;3.91;55.06
59419;BME280;45224;50.904;6.038;2023-04-06T04:01:32;99844.06;;;3.95;54.55
59419;BME280;45224;50.904;6.038;2023-04-06T04:03:02;99845.66;;;3.92;54.37
59419;BME280;45224;50.904;6.038;2023-04-06T04:04:33;99850.97;;;3.98;55.05
59419;BME280;45224;50.904;6.038;2023-04-06T04:06:03;99845.03;;;3.99;54.33
59419;BME280;45224;50.904;6.038;2023-04-06T04:07:34;99838.97;;;3.97;54.42
59419;BME280;45224;50.904;6.038;2023-04-06T04:09:05;99845.88;;;3.99;54.34
59419;BME280;45224;50.904;6.038;2023-04-06T04:10:36;99850.16;;;3.99;54.55
59419;BME280;45224;50.904;6.038;2023-04-06T04:12:06;99845.97;;;4.02;55.04
59419;BME280;45224;50.904;6.038;2023-04-06T04:13:37;99854.56;;;4.05;54.92
59419;BME280;45224;50.904;6.038;2023-04-06T04:15:09;99857.06;;;4.03;54.97
59419;BME280;45224;50.904;6.038;2023-04-06T04:16:40;99851.22;;;4.07;54.45
59419;BME280;45224;50.904;6.038;2023-04-06T04:18:11;99856.38;;;4.09;55.41
59419;BME280;45224;50.904;6.038;2023-04-06T04:19:43;99864.09;;;4.10;54.46
59419;BME280;45224;50.904;6.038;2023-04-06T04:21:14;99852.97;;;4.10;54.47
59419;BME280;45224;50.904;6.038;2023-04-06T04:22:45;99852.22;;;4.12;54.72
59419;BME280;45224;50.904;6.038;2023-04-06T04:24:15;99846.22;;;4.12;54.46
59419;BME280;45224;50.904;6.038;2023-04-06T04:25:46;99852.28;;;4.15;54.75
59419;BME280;45224;50.904;6.038;2023-04-06T04:27:16;99854.97;;;4.20;54.33
59419;BME280;45224;50.904;6.038;2023-04-06T04:28:47;99848.97;;;4.19;54.69
59419;BME280;45224;50.904;6.038;2023-04-06T04:30:19;99861.91;;;4.24;54.58
59419;BME280;45224;50.904;6.038;2023-04-06T04:31:49;99861.94;;;4.26;54.91
59419;BME280;45224;50.904;6.038;2023-04-06T04:33:21;99861.03;;;4.24;55.04
59419;BME280;45224;50.904;6.038;2023-04-06T04:34:53;99868.88;;;4.30;54.42
59419;BME280;45224;50.904;6.038;2023-04-06T04:36:35;99857.78;;;4.31;54.96
59419;BME280;45224;50.904;6.038;2023-04-06T04:38:09;99862.91;;;4.31;55.45
59419;BME280;45224;50.904;6.038;2023-04-06T04:39:44;99850.00;;;4.26;54.59
59419;BME280;45224;50.904;6.038;2023-04-06T04:41:15;99865.56;;;4.34;55.38
59419;BME280;45224;50.904;6.038;2023-04-06T04:42:48;99855.31;;;4.34;54.95
59419;BME280;45224;50.904;6.038;2023-04-06T04:44:27;99860.44;;;4.34;54.83
59419;BME280;45224;50.904;6.038;2023-04-06T04:45:58;99851.91;;;4.33;54.75
59419;BME280;45224;50.904;6.038;2023-04-06T04:47:55;99856.16;;;4.33;55.18
59419;BME280;45224;50.904;6.038;2023-04-06T04:49:29;99854.50;;;4.35;55.03
59419;BME280;45224;50.904;6.038;2023-04-06T04:51:00;99853.66;;;4.36;55.14
59419;BME280;45224;50.904;6.038;2023-04-06T04:52:37;99851.09;;;4.36;54.69
59419;BME280;45224;50.904;6.038;2023-04-06T04:54:18;99853.69;;;4.37;55.21
59419;BME280;45224;50.904;6.038;2023-04-06T04:55:49;99848.66;;;4.41;55.04
59419;BME280;45224;50.904;6.038;2023-04-06T04:57:21;99852.06;;;4.39;55.46
59419;BME280;45224;50.904;6.038;2023-04-06T04:58:52;99852.84;;;4.37;55.39
59419;BME280;45224;50.904;6.038;2023-04-06T05:00:23;99856.25;;;4.37;55.50
59419;BME280;45224;50.904;6.038;2023-04-06T05:01:57;99852.94;;;4.40;54.52
59419;BME280;45224;50.904;6.038;2023-04-06T05:03:37;99849.56;;;4.41;54.97
59419;BME280;45224;50.904;6.038;2023-04-06T05:05:11;99852.94;;;4.40;55.39
59419;BME280;45224;50.904;6.038;2023-04-06T05:06:43;99849.63;;;4.44;55.44
59419;BME280;45224;50.904;6.038;2023-04-06T05:08:15;99849.69;;;4.47;55.42
59419;BME280;45224;50.904;6.038;2023-04-06T05:09:49;99859.06;;;4.47;55.44
59419;BME280;45224;50.904;6.038;2023-04-06T05:11:20;99851.34;;;4.45;57.22
59419;BME280;45224;50.904;6.038;2023-04-06T05:12:58;99855.56;;;4.43;56.04
59419;BME280;45224;50.904;6.038;2023-04-06T05:14:30;99850.56;;;4.48;55.20
59419;BME280;45224;50.904;6.038;2023-04-06T05:16:02;99844.56;;;4.47;55.92
59419;BME280;45224;50.904;6.038;2023-04-06T05:17:36;99846.31;;;4.48;55.75
59419;BME280;45224;50.904;6.038;2023-04-06T05:19:07;99850.63;;;4.49;55.90
59419;BME280;45224;50.904;6.038;2023-04-06T05:20:44;99848.06;;;4.49;56.02
59419;BME280;45224;50.904;6.038;2023-04-06T05:22:15;99851.50;;;4.51;56.15
59419;BME280;45224;50.904;6.038;2023-04-06T05:23:51;99853.25;;;4.52;55.67
59419;BME280;45224;50.904;6.038;2023-04-06T05:25:22;99846.47;;;4.54;56.26
59419;BME280;45224;50.904;6.038;2023-04-06T05:26:56;99842.25;;;4.56;55.93
59419;BME280;45224;50.904;6.038;2023-04-06T05:28:28;99843.91;;;4.54;56.33
59419;BME280;45224;50.904;6.038;2023-04-06T05:29:58;99850.81;;;4.58;55.65
59419;BME280;45224;50.904;6.038;2023-04-06T05:31:31;99839.75;;;4.60;55.74
59419;BME280;45224;50.904;6.038;2023-04-06T05:33:02;99844.97;;;4.63;55.66
59419;BME280;45224;50.904;6.038;2023-04-06T05:34:41;99845.97;;;4.69;55.21
59419;BME280;45224;50.904;6.038;2023-04-06T05:36:12;99847.81;;;4.73;55.09
59419;BME280;45224;50.904;6.038;2023-04-06T05:37:46;99841.88;;;4.76;54.74
59419;BME280;45224;50.904;6.038;2023-04-06T05:39:17;99838.50;;;4.77;55.01
59419;BME280;45224;50.904;6.038;2023-04-06T05:40:52;99838.59;;;4.82;54.74
59419;BME280;45224;50.904;6.038;2023-04-06T05:42:26;99843.84;;;4.86;54.91
59419;BME280;45224;50.904;6.038;2023-04-06T05:44:00;99837.88;;;4.87;54.95
59419;BME280;45224;50.904;6.038;2023-04-06T05:45:31;99839.69;;;4.91;54.83
59419;BME280;45224;50.904;6.038;2023-04-06T05:47:03;99832.84;;;4.92;54.53
59419;BME280;45224;50.904;6.038;2023-04-06T05:48:34;99838.16;;;5.00;54.90
59419;BME280;45224;50.904;6.038;2023-04-06T05:50:06;99833.06;;;5.01;54.85
59419;BME280;45224;50.904;6.038;2023-04-06T05:51:40;99832.25;;;5.02;54.78
59419;BME280;45224;50.904;6.038;2023-04-06T05:53:11;99825.44;;;5.03;54.69
59419;BME280;45224;50.904;6.038;2023-04-06T05:54:46;99841.88;;;5.12;54.29
59419;BME280;45224;50.904;6.038;2023-04-06T05:56:17;99831.72;;;5.17;53.72
59419;BME280;45224;50.904;6.038;2023-04-06T05:57:48;99841.19;;;5.21;54.13
59419;BME280;45224;50.904;6.038;2023-04-06T05:59:21;99837.91;;;5.25;54.05
59419;BME280;45224;50.904;6.038;2023-04-06T06:00:59;99838.78;;;5.27;54.24
59419;BME280;45224;50.904;6.038;2023-04-06T06:02:37;99837.97;;;5.28;54.12
59419;BME280;45224;50.904;6.038;2023-04-06T06:04:07;99834.69;;;5.36;54.03
59419;BME280;45224;50.904;6.038;2023-04-06T06:05:41;99837.34;;;5.40;53.32
59419;BME280;45224;50.904;6.038;2023-04-06T06:07:20;99839.09;;;5.41;53.91
59419;BME280;45224;50.904;6.038;2023-04-06T06:08:58;99838.25;;;5.42;53.68
59419;BME280;45224;50.904;6.038;2023-04-06T06:10:38;99836.72;;;5.49;53.77
59419;BME280;45224;50.904;6.038;2023-04-06T06:12:10;99835.13;;;5.56;53.02
59419;BME280;45224;50.904;6.038;2023-04-06T06:13:40;99836.03;;;5.58;53.18
59419;BME280;45224;50.904;6.038;2023-04-06T06:15:11;99835.25;;;5.63;53.22
59419;BME280;45224;50.904;6.038;2023-04-06T06:16:47;99832.75;;;5.66;53.17
59419;BME280;45224;50.904;6.038;2023-04-06T06:18:19;99840.59;;;5.73;52.90
59419;BME280;45224;50.904;6.038;2023-04-06T06:19:52;99831.22;;;5.75;53.33
59419;BME280;45224;50.904;6.038;2023-04-06T06:21:22;99830.47;;;5.79;53.14
59419;BME280;45224;50.904;6.038;2023-04-06T06:22:53;99827.16;;;5.86;52.75
59419;BME280;45224;50.904;6.038;2023-04-06T06:24:26;99830.69;;;5.90;52.72
59419;BME280;45224;50.904;6.038;2023-04-06T06:25:56;99835.06;;;5.95;52.78
59419;BME280;45224;50.904;6.038;2023-04-06T06:27:29;99835.97;;;5.97;52.57
59419;BME280;45224;50.904;6.038;2023-04-06T06:28:59;99839.53;;;6.02;52.43
59419;BME280;45224;50.904;6.038;2023-04-06T06:30:30;99832.72;;;6.05;52.50
59419;BME280;45224;50.904;6.038;2023-04-06T06:32:00;99836.25;;;6.11;53.05
59419;BME280;45224;50.904;6.038;2023-04-06T06:33:31;99837.16;;;6.15;52.38
59419;BME280;45224;50.904;6.038;2023-04-06T06:35:03;99832.94;;;6.17;52.24
59419;BME280;45224;50.904;6.038;2023-04-06T06:36:33;99836.41;;;6.19;52.67
59419;BME280;45224;50.904;6.038;2023-04-06T06:38:06;99839.09;;;6.25;52.36
59419;BME280;45224;50.904;6.038;2023-04-06T06:39:37;99831.44;;;6.30;52.78
59419;BME280;45224;50.904;6.038;2023-04-06T06:41:07;99839.13;;;6.30;52.18
59419;BME280;45224;50.904;6.038;2023-04-06T06:42:40;99838.47;;;6.38;51.98
59419;BME280;45224;50.904;6.038;2023-04-06T06:44:33;99830.91;;;6.48;52.25
59419;BME280;45224;50.904;6.038;2023-04-06T06:46:04;99842.94;;;6.50;52.50
59419;BME280;45224;50.904;6.038;2023-04-06T06:47:35;99835.28;;;6.53;52.25
59419;BME280;45224;50.904;6.038;2023-04-06T06:49:06;99837.09;;;6.59;52.12
59419;BME280;45224;50.904;6.038;2023-04-06T06:50:36;99835.53;;;6.67;51.87
59419;BME280;45224;50.904;6.038;2023-04-06T06:52:07;99832.16;;;6.71;51.67
59419;BME280;45224;50.904;6.038;2023-04-06T06:53:37;99833.94;;;6.75;51.71
59419;BME280;45224;50.904;6.038;2023-04-06T06:55:09;99830.56;;;6.80;51.70
59419;BME280;45224;50.904;6.038;2023-04-06T06:56:41;99835.84;;;6.89;51.70
59419;BME280;45224;50.904;6.038;2023-04-06T06:58:11;99827.31;;;6.90;51.66
59419;BME280;45224;50.904;6.038;2023-04-06T06:59:42;99837.72;;;6.99;51.56
59419;BME280;45224;50.904;6.038;2023-04-06T07:01:13;99830.03;;;7.01;51.59
59419;BME280;45224;50.904;6.038;2023-04-06T07:02:43;99832.78;;;7.11;51.70
59419;BME280;45224;50.904;6.038;2023-04-06T07:04:14;99832.00;;;7.16;52.04
59419;BME280;45224;50.904;6.038;2023-04-06T07:05:45;99830.34;;;7.21;52.30
59419;BME280;45224;50.904;6.038;2023-04-06T07:07:20;99820.16;;;7.27;51.77
59419;BME280;45224;50.904;6.038;2023-04-06T07:08:50;99833.16;;;7.39;51.45
59419;BME280;45224;50.904;6.038;2023-04-06T07:10:21;99833.25;;;7.45;51.61
59419;BME280;45224;50.904;6.038;2023-04-06T07:11:52;99823.03;;;7.52;51.75
59419;BME280;45224;50.904;6.038;2023-04-06T07:13:23;99826.56;;;7.60;51.52
59419;BME280;45224;50.904;6.038;2023-04-06T07:14:56;99824.94;;;7.68;51.35
59419;BME280;45224;50.904;6.038;2023-04-06T07:16:27;99818.09;;;7.70;51.91
59419;BME280;45224;50.904;6.038;2023-04-06T07:17:58;99823.34;;;7.76;51.67
59419;BME280;45224;50.904;6.038;2023-04-06T07:19:30;99825.97;;;7.81;51.44
59419;BME280;45224;50.904;6.038;2023-04-06T07:21:01;99815.75;;;7.87;51.35
59419;BME280;45224;50.904;6.038;2023-04-06T07:22:31;99822.72;;;7.97;51.42
59419;BME280;45224;50.904;6.038;2023-04-06T07:24:02;99821.03;;;8.02;51.33
59419;BME280;45224;50.904;6.038;2023-04-06T07:25:32;99814.28;;;8.09;50.84
59419;BME280;45224;50.904;6.038;2023-04-06T07:27:03;99822.09;;;8.21;50.57
59419;BME280;45224;50.904;6.038;2023-04-06T07:28:34;99813.53;;;8.22;50.26
59419;BME280;45224;50.904;6.038;2023-04-06T07:30:06;99812.69;;;8.22;50.55
59419;BME280;45224;50.904;6.038;2023-04-06T07:31:37;99822.16;;;8.26;50.64
59419;BME280;45224;50.904;6.038;2023-04-06T07:33:08;99824.78;;;8.31;50.63
59419;BME280;45224;50.904;6.038;2023-04-06T07:34:40;99811.91;;;8.31;50.44
59419;BME280;45224;50.904;6.038;2023-04-06T07:36:11;99826.50;;;8.30;50.10
59419;BME280;45224;50.904;6.038;2023-04-06T07:37:41;99825.69;;;8.36;50.66
59419;BME280;45224;50.904;6.038;2023-04-06T07:39:13;99822.28;;;8.37;50.20
59419;BME280;45224;50.904;6.038;2023-04-06T07:40:44;99820.59;;;8.42;50.26
59419;BME280;45224;50.904;6.038;2023-04-06T07:42:14;99822.31;;;8.41;50.07
59419;BME280;45224;50.904;6.038;2023-04-06T07:43:45;99824.09;;;8.47;50.53
59419;BME280;45224;50.904;6.038;2023-04-06T07:45:16;99818.97;;;8.50;50.61
59419;BME280;45224;50.904;6.038;2023-04-06T07:46:47;99819.88;;;8.54;50.29
59419;BME280;45224;50.904;6.038;2023-04-06T07:48:18;99817.28;;;8.52;50.68
59419;BME280;45224;50.904;6.038;2023-04-06T07:49:49;99817.31;;;8.55;50.25
59419;BME280;45224;50.904;6.038;2023-04-06T07:51:20;99820.75;;;8.54;50.38
59419;BME280;45224;50.904;6.038;2023-04-06T07:52:51;99819.91;;;8.58;50.12
59419;BME280;45224;50.904;6.038;2023-04-06T07:54:21;99817.38;;;8.65;50.05
59419;BME280;45224;50.904;6.038;2023-04-06T07:55:52;99810.47;;;8.57;50.25
59419;BME280;45224;50.904;6.038;2023-04-06T07:57:23;99815.66;;;8.64;49.81
59419;BME280;45224;50.904;6.038;2023-04-06T07:58:54;99818.25;;;8.67;49.83
59419;BME280;45224;50.904;6.038;2023-04-06T08:00:28;99814.84;;;8.68;49.93
59419;BME280;45224;50.904;6.038;2023-04-06T08:01:58;99816.56;;;8.72;50.00
59419;BME280;45224;50.904;6.038;2023-04-06T08:03:29;99819.22;;;8.78;50.13
59419;BME280;45224;50.904;6.038;2023-04-06T08:04:59;99818.38;;;8.81;50.36
59419;BME280;45224;50.904;6.038;2023-04-06T08:06:30;99814.97;;;8.85;50.29
59419;BME280;45224;50.904;6.038;2023-04-06T08:08:00;99812.38;;;8.83;50.15
59419;BME280;45224;50.904;6.038;2023-04-06T08:09:31;99815.88;;;8.88;49.90
59419;BME280;45224;50.904;6.038;2023-04-06T08:11:01;99813.31;;;8.94;49.46
59419;BME280;45224;50.904;6.038;2023-04-06T08:12:33;99810.75;;;8.98;49.39
59419;BME280;45224;50.904;6.038;2023-04-06T08:14:04;99818.50;;;8.98;49.71
59419;BME280;45224;50.904;6.038;2023-04-06T08:15:34;99816.81;;;9.03;49.86
59419;BME280;45224;50.904;6.038;2023-04-06T08:17:05;99818.53;;;9.05;50.05
59419;BME280;45224;50.904;6.038;2023-04-06T08:18:35;99816.00;;;9.10;49.57